Vina, Alabama
Current Conditions -  °F | °C
As of 8:26 AM on Sunday 23 Nov 2014 (Local Time) from K1M4 Reporting Station
Haze Haze  
Wind Chill: 54°   Ceiling: 400
Heat Index: 54°   Visibility: 1.7mi
Dew Point: 54°   Wind: 13mph
Humidity: 100%   Direction: 130°SE
Pressure: 29.85"   Gusts: 23mph
Location:  34.38°N, 88.06°W
Report Text: K1M4 231426Z AUTO 13011G20KT 1 3/4SM BR OVC004 12/12 A2985 RMK AO2 CIG 002V007 RAE19 P0001
Loading
Personal Weather Stations






























Interactive Weather Map New forecast layout! Learn more

10-Day Weather Forecast

Advertisements
Track Severe Weather on mobile